CST,Max TemperatureF,Mean TemperatureF,Min TemperatureF,Max Dew PointF,MeanDew PointF,Min DewpointF,Max Humidity, Mean Humidity, Min Humidity, Max Sea Level PressureIn, Mean Sea Level PressureIn, Min Sea Level PressureIn, Max VisibilityMiles, Mean VisibilityMiles, Min VisibilityMiles, Max Wind SpeedMPH, Mean Wind SpeedMPH, Max Gust SpeedMPH,PrecipitationIn, CloudCover, Events, WindDirDegrees
2013-12-1,33,28,24,23,20,18,80,72,60,30.18,30.08,29.90,10,9,7,8,5,,0.00,6,,56
2013-12-2,41,34,28,34,28,21,87,77,61,29.89,29.66,29.54,10,6,3,18,11,25,0.01,7,,149
2013-12-3,35,32,30,34,31,25,100,91,70,29.74,29.65,29.56,9,2,0,9,5,,0.04,7,,79
2013-12-4,33,22,10,30,25,5,100,88,73,29.79,29.62,29.48,10,5,1,26,11,37,0.02,8,,357
2013-12-5,10,5,0,3,-1,-8,85,74,67,30.36,30.10,29.79,10,10,2,24,19,33,0.00,2,,284
2013-12-6,1,-3,-7,-6,-9,-15,84,76,66,30.64,30.49,30.35,10,10,10,13,9,,0.00,0,,293
2013-12-7,1,-5,-11,-4,-10,-17,92,75,61,30.71,30.63,30.52,10,10,10,8,5,,0.00,0,,275
2013-12-8,14,8,1,10,7,-4,92,85,78,30.51,30.20,30.02,10,4,1,17,8,,0.00,8,,128
2013-12-9,12,4,-5,9,-6,-11,92,75,61,30.13,30.05,29.84,10,10,8,21,11,29,0.00,1,,258
2013-12-10,17,9,1,12,4,-6,86,77,61,30.25,30.02,29.77,10,7,1,31,17,38,0.00,5,,272
2013-12-11,8,0,-7,0,-13,-29,84,60,34,30.56,30.44,30.27,10,10,5,24,13,29,0.00,1,,276
2013-12-12,21,12,3,14,4,-18,86,66,29,30.28,30.20,30.10,10,10,10,14,8,,0.00,2,,219
2013-12-13,17,14,12,12,10,7,100,80,73,30.22,30.13,30.06,10,10,9,18,10,23,0.00,1,,65
2013-12-14,12,6,1,9,5,-6,92,83,67,30.22,30.15,30.09,10,8,2,20,10,26,0.00,6,,340
2013-12-15,5,2,0,1,-4,-6,85,75,66,30.13,30.10,30.07,10,9,2,14,9,18,0.00,8,,1
2013-12-16,24,15,6,19,9,1,93,83,79,30.08,29.99,29.94,10,8,0,14,8,,0.00,5,,202
2013-12-17,33,24,15,25,18,10,80,72,59,30.11,30.03,29.93,10,10,3,30,17,39,0.00,2,,290
2013-12-18,37,24,12,28,20,9,92,75,55,30.06,29.77,29.65,10,10,10,18,9,24,0.00,0,,204
2013-12-19,28,22,17,23,14,10,93,78,73,30.02,29.94,29.80,10,10,10,20,12,23,0.00,3,,22
2013-12-20,17,16,14,14,12,9,86,83,79,29.97,29.92,29.85,10,10,5,15,10,18,0.00,8,,356
2013-12-21,19,16,12,16,13,10,100,87,79,29.95,29.90,29.84,10,9,2,16,6,,0.00,8,,359
2013-12-22,17,8,-2,16,3,-8,93,82,72,30.26,30.06,29.91,10,9,3,18,14,23,0.00,8,,316
2013-12-23,0,-6,-11,-8,-15,-27,92,70,35,30.50,30.41,30.27,10,8,3,22,15,25,0.00,5,,305
2013-12-24,10,-2,-13,7,-12,-24,85,57,34,30.47,30.27,30.11,10,7,1,20,8,28,0.00,4,,175
2013-12-25,30,21,12,27,14,0,100,83,57,30.16,30.10,30.05,10,8,1,28,10,36,0.00,7,,255
2013-12-26,28,22,17,25,20,12,93,86,74,30.16,30.09,30.04,10,10,7,12,5,,0.00,6,,183
2013-12-27,39,30,21,30,26,18,93,80,65,30.15,30.04,29.93,10,10,10,17,9,24,0.00,,,237
2013-12-28,41,29,17,32,26,16,93,82,65,29.99,29.82,29.66,10,9,2,29,11,34,0.00,,,211
2013-12-29,17,3,-11,14,-8,-17,86,73,55,30.32,30.24,30.00,10,10,9,28,18,34,0.00,,,321
2013-12-30,6,-4,-13,1,-6,-17,100,83,71,30.26,30.18,30.09,10,8,1,14,5,,0.00,,,149
2013-12-31,1,-4,-9,-4,-8,-15,92,83,71,30.34,30.27,30.19,10,8,1,12,6,,0.00,,,352